ADDS METAR Data INFO
IDs: Format: Raw Decoded Include TAF

Data at: 1306 UTC 11 Dec 2017

KCKN 111255Z AUTO 35024KT 7SM OVC007 M02/M03 A2984 RMK AO2
KCKN 111235Z AUTO 35026G34KT 5SM BR OVC007 M02/M02 A2981 RMK AO2
KCKN 111215Z AUTO 35030G38KT 7SM OVC007 M01/M02 A2979 RMK AO2
KCKN 111155Z AUTO 35032G36KT 7SM UP OVC009 00/M01 A2977 RMK AO2
KCKN 111135Z AUTO 35024G30KT 7SM UP OVC011 01/00 A2975 RMK AO2
KCKN 111115Z AUTO 35025G29KT 7SM UP BKN013 BKN022 OVC028 02/00 A2973 RMK AO2
KCKN 111055Z AUTO 34018G23KT 10SM BKN015 OVC023 02/00 A2972 RMK AO2
KCKN 111035Z AUTO 33012KT 10SM OVC020 01/M01 A2971 RMK AO2
KCKN 111015Z AUTO 31010KT 10SM OVC022 01/M01 A2970 RMK AO2
KCKN 110955Z AUTO 29006KT 10SM BKN024 OVC030 00/M01 A2970 RMK AO2
KCKN 110935Z AUTO 25004KT 10SM OVC024 00/M01 A2969 RMK AO2
KCKN 110915Z AUTO 24005KT 10SM OVC024 00/M01 A2969 RMK AO2
KCKN 110855Z AUTO 22007KT 10SM BKN028 OVC036 00/M01 A2969 RMK AO2 P0001
KCKN 110835Z AUTO 22007KT 10SM SCT031 BKN037 OVC042 00/M01 A2969 RMK AO2 P0001
KCKN 110815Z AUTO 21005KT 7SM UP SCT036 OVC042 M01/M01 A2969 RMK AO2 P0001
KCKN 110755Z AUTO 21006G09KT 10SM OVC044 M01/M02 A2969 RMK AO2
KCKN 110735Z AUTO 20008KT 10SM BKN044 BKN070 BKN085 M02/M02 A2969 RMK AO2
KCKN 110715Z AUTO 20006KT 10SM SCT070 SCT095 M02/M03 A2970 RMK AO2
KCKN 110655Z AUTO 20011KT 10SM SCT044 SCT095 M02/M03 A2971 RMK AO2
KCKN 110635Z AUTO 20010KT 10SM SCT044 BKN095 M02/M03 A2973 RMK AO2
KCKN 110615Z AUTO 19011KT 7SM SCT042 BKN095 M03/M03 A2974 RMK AO2
KCKN 110555Z AUTO 18011KT 7SM SCT006 BKN040 M03/M03 A2973 RMK AO2
KCKN 110535Z AUTO 19011KT 7SM SCT006 OVC038 M03/M04 A2977 RMK AO2
KCKN 110515Z AUTO 19012KT 10SM SCT006 SCT029 OVC038 M03/M04 A2978 RMK AO2
KCKN 110455Z AUTO 19012KT 7SM SCT008 BKN027 OVC038 M04/M04 A2979 RMK AO2 P0001
KCKN 110435Z AUTO 20012KT 7SM OVC010 M04/M05 A2982 RMK AO2 P0001
KCKN 110415Z AUTO 20010KT 4SM -SN SCT006 OVC010 M04/M05 A2984 RMK AO2 P0001
KCKN 110355Z AUTO 19010KT 1 1/4SM -SN BKN006 OVC012 M04/M05 A2984 RMK AO2
KCKN 110335Z AUTO 18011KT 1 3/4SM -SN OVC008 M04/M06 A2984 RMK AO2
KCKN 110315Z AUTO 18011KT 2SM -SN BKN010 BKN017 OVC037 M04/M06 A2985 RMK AO2
KCKN 110255Z AUTO 17010KT 10SM -SN SCT028 SCT037 SCT047 M04/M06 A2986 RMK AO2
KCKN 110235Z AUTO 17010KT 7SM -SN SCT036 M05/M06 A2989 RMK AO2
KCKN 110215Z AUTO 17009KT 10SM SCT038 SCT060 M05/M06 A2991 RMK AO2
KCKN 110155Z AUTO 19008KT 10SM SCT038 SCT047 BKN060 M05/M06 A2994 RMK AO2
KCKN 110135Z AUTO 18008KT 10SM BKN060 OVC080 M05/M06 A2995 RMK AO2
KCKN 110115Z AUTO 18007KT 10SM OVC080 M05/M06 A2995 RMK AO2
KCKN 110056Z AUTO 18006KT 10SM OVC080 M05/M07 A2996 RMK AO2
KCKN 110035Z AUTO 18006KT 10SM BKN080 M05/M07 A2996 RMK AO2
KCKN 110015Z AUTO 18007KT 10SM SCT080 M05/M07 A2997 RMK AO2
KCKN 102356Z AUTO 19007KT 10SM OVC080 M05/M07 A2998 RMK AO2
KCKN 102335Z AUTO 19006KT 10SM OVC080 M05/M07 A2999 RMK AO2
KCKN 102315Z AUTO 20005KT 10SM SCT012 OVC080 M05/M07 A3001 RMK AO2
KCKN 102256Z AUTO 21005KT 10SM SCT012 OVC080 M06/M07 A3003 RMK AO2
KCKN 102235Z AUTO 20003KT 10SM OVC080 M06/M07 A3003 RMK AO2
KCKN 102215Z AUTO 20003KT 10SM SCT011 OVC080 M06/M07 A3003 RMK AO2
KCKN 102155Z AUTO 21003KT 10SM OVC011 M05/M07 A3003 RMK AO2
KCKN 102135Z AUTO 00000KT 10SM OVC011 M05/M07 A3004 RMK AO2
KCKN 102115Z AUTO 00000KT 10SM OVC011 M05/M07 A3003 RMK AO2
KCKN 102055Z AUTO 00000KT 10SM OVC011 M06/M07 A3003 RMK AO2
KCKN 102035Z AUTO 00000KT 10SM OVC011 M05/M07 A3004 RMK AO2
KCKN 102015Z AUTO 00000KT 10SM OVC011 M05/M07 A3004 RMK AO2
KCKN 101955Z AUTO 00000KT 10SM OVC011 M05/M07 A3004 RMK AO2
KCKN 101935Z AUTO 33003KT 10SM OVC011 M06/M07 A3004 RMK AO2
KCKN 101915Z AUTO 32003KT 10SM OVC011 M06/M07 A3005 RMK AO2
KCKN 101855Z AUTO 33004KT 10SM OVC011 M06/M07 A3006 RMK AO2
KCKN 101835Z AUTO 33005KT 10SM OVC011 M06/M07 A3005 RMK AO2
KCKN 101815Z AUTO 32004KT 10SM OVC011 M06/M08 A3006 RMK AO2
KCKN 101755Z AUTO 34004KT 10SM OVC013 M06/M08 A3005 RMK AO2
KCKN 101735Z AUTO 01006KT 10SM BKN011 M06/M08 A3005 RMK AO2
KCKN 101715Z AUTO 35006KT 10SM OVC011 M06/M08 A3006 RMK AO2
KCKN 101655Z AUTO 01006KT 10SM BKN011 M06/M08 A3006 RMK AO2
KCKN 101635Z AUTO 01008KT 10SM OVC011 M06/M08 A3006 RMK AO2
KCKN 101615Z AUTO 01007KT 10SM OVC011 M06/M08 A3006 RMK AO2
KCKN 101555Z AUTO 36009KT 10SM OVC011 M06/M08 A3005 RMK AO2
KCKN 101535Z AUTO 36008KT 10SM OVC011 M06/M08 A3004 RMK AO2
KCKN 101515Z AUTO 35009KT 10SM OVC011 M06/M08 A3003 RMK AO2
KCKN 101455Z AUTO 35006KT 10SM OVC011 M06/M08 A3003 RMK AO2
KCKN 101435Z AUTO 01008KT 10SM OVC013 M07/M08 A3003 RMK AO2
KCKN 101415Z AUTO 36006KT 10SM OVC013 M07/M08 A3002 RMK AO2
KCKN 101355Z AUTO 34007KT 10SM OVC013 M07/M08 A3003 RMK AO2
KCKN 101335Z AUTO 34007KT 10SM OVC015 M06/M07 A3003 RMK AO2
KCKN 101315Z AUTO 34008KT 10SM OVC015 M06/M08 A3002 RMK AO2
KCKN 101255Z AUTO 34008KT 10SM OVC015 M06/M07 A3002 RMK AO2
KCKN 101235Z AUTO 34007KT 10SM OVC015 M06/M08 A3000 RMK AO2
KCKN 101215Z AUTO 34009KT 10SM OVC017 M07/M08 A3001 RMK AO2
KCKN 101155Z AUTO 34009KT 10SM OVC017 M07/M08 A3000 RMK AO2
KCKN 101135Z AUTO 34010KT 10SM OVC017 M07/M08 A2999 RMK AO2
KCKN 101115Z AUTO 33007KT 10SM OVC017 M07/M08 A2997 RMK AO2
KCKN 101055Z AUTO 34008KT 10SM OVC019 M07/M08 A2998 RMK AO2
KCKN 101035Z AUTO 35009KT 10SM BKN019 M07/M08 A2997 RMK AO2
KCKN 101015Z AUTO 36009KT 10SM BKN019 M07/M08 A2997 RMK AO2
KCKN 100955Z AUTO 36012KT 10SM BKN019 M06/M08 A2996 RMK AO2
KCKN 100935Z AUTO 35014KT 10SM SCT019 M06/M08 A2995 RMK AO2
KCKN 100915Z AUTO 35011KT 10SM CLR M06/M08 A2994 RMK AO2
KCKN 100855Z AUTO 35013KT 10SM CLR M06/M07 A2993 RMK AO2
KCKN 100835Z AUTO 35014KT 10SM CLR M06/M07 A2992 RMK AO2
KCKN 100815Z AUTO 36014KT 10SM CLR M05/M07 A2991 RMK AO2
KCKN 100755Z AUTO 36015KT 10SM CLR M05/M07 A2990 RMK AO2
KCKN 100735Z AUTO 35015KT 10SM CLR M05/M07 A2989 RMK AO2
KCKN 100715Z AUTO 35015KT 10SM CLR M05/M07 A2989 RMK AO2
KCKN 100655Z AUTO 35017G22KT 10SM CLR M05/M07 A2987 RMK AO2
KCKN 100635Z AUTO 35016G19KT 10SM CLR M05/M07 A2986 RMK AO2
KCKN 100615Z AUTO 34015KT 10SM CLR M05/M07 A2985 RMK AO2
KCKN 100555Z AUTO 35014KT 10SM CLR M04/M07 A2985 RMK AO2
KCKN 100535Z AUTO 35017KT 10SM CLR M04/M07 A2985 RMK AO2
KCKN 100515Z AUTO 34012KT 10SM CLR M04/M07 A2984 RMK AO2
KCKN 100455Z AUTO 34012KT 10SM CLR M04/M07 A2983 RMK AO2
KCKN 100435Z AUTO 34009KT 10SM CLR M04/M07 A2982 RMK AO2
KCKN 100415Z AUTO 34014KT 10SM CLR M03/M06 A2980 RMK AO2
KCKN 100355Z AUTO 34012KT 10SM CLR M03/M06 A2980 RMK AO2
KCKN 100335Z AUTO 33010KT 10SM CLR M03/M06 A2979 RMK AO2
KCKN 100315Z AUTO 32009KT 10SM CLR M05/M07 A2978 RMK AO2
KCKN 100255Z AUTO 28007KT 10SM CLR M05/M07 A2977 RMK AO2
KCKN 100235Z AUTO 00000KT 10SM CLR M05/M07 A2977 RMK AO2
KCKN 100215Z AUTO 21007KT 10SM CLR M05/M06 A2977 RMK AO2
KCKN 100155Z AUTO 21009KT 10SM CLR M04/M06 A2976 RMK AO2
KCKN 100135Z AUTO 27006G10KT 10SM CLR M04/M06 A2976 RMK AO2
KCKN 100115Z AUTO 20011G19KT 10SM CLR M04/M06 A2976 RMK AO2